sensor_id;sensor_type;location;lat;lon;timestamp;pressure;altitude;pressure_sealevel;temperature;humidity
32733;BME280;11867;51.198;11.966;2023-03-19T00:00:45;100166.66;;;11.91;79.86
32733;BME280;11867;51.198;11.966;2023-03-19T00:01:46;100162.53;;;11.70;80.19
32733;BME280;11867;51.198;11.966;2023-03-19T00:02:49;100170.50;;;11.66;80.22
32733;BME280;11867;51.198;11.966;2023-03-19T00:03:53;100169.63;;;11.47;81.22
32733;BME280;11867;51.198;11.966;2023-03-19T00:04:55;100176.03;;;10.79;84.18
32733;BME280;11867;51.198;11.966;2023-03-19T00:05:57;100163.66;;;10.92;84.76
32733;BME280;11867;51.198;11.966;2023-03-19T00:07:01;100167.53;;;11.15;83.97
32733;BME280;11867;51.198;11.966;2023-03-19T00:08:03;100169.75;;;10.83;83.88
32733;BME280;11867;51.198;11.966;2023-03-19T00:09:05;100164.91;;;10.41;86.78
32733;BME280;11867;51.198;11.966;2023-03-19T00:10:08;100162.22;;;10.36;86.72
32733;BME280;11867;51.198;11.966;2023-03-19T00:11:12;100166.38;;;9.68;89.99
32733;BME280;11867;51.198;11.966;2023-03-19T00:12:13;100165.75;;;9.81;90.66
32733;BME280;11867;51.198;11.966;2023-03-19T00:13:17;100166.59;;;9.77;90.09
32733;BME280;11867;51.198;11.966;2023-03-19T00:14:18;100161.97;;;9.77;90.61
32733;BME280;11867;51.198;11.966;2023-03-19T00:15:21;100158.78;;;9.60;90.46
32733;BME280;11867;51.198;11.966;2023-03-19T00:16:23;100162.63;;;9.54;92.09
32733;BME280;11867;51.198;11.966;2023-03-19T00:17:26;100163.72;;;9.42;92.25
32733;BME280;11867;51.198;11.966;2023-03-19T00:18:28;100163.97;;;9.61;91.66
32733;BME280;11867;51.198;11.966;2023-03-19T00:19:30;100156.50;;;9.82;90.71
32733;BME280;11867;51.198;11.966;2023-03-19T00:20:32;100159.41;;;9.96;89.92
32733;BME280;11867;51.198;11.966;2023-03-19T00:21:35;100159.63;;;10.10;89.43
32733;BME280;11867;51.198;11.966;2023-03-19T00:22:38;100148.53;;;10.41;88.12
32733;BME280;11867;51.198;11.966;2023-03-19T00:23:41;100158.09;;;10.73;86.73
32733;BME280;11867;51.198;11.966;2023-03-19T00:24:43;100148.63;;;10.94;85.31
32733;BME280;11867;51.198;11.966;2023-03-19T00:25:45;100158.84;;;11.07;84.43
32733;BME280;11867;51.198;11.966;2023-03-19T00:26:47;100155.66;;;11.24;84.18
32733;BME280;11867;51.198;11.966;2023-03-19T00:27:50;100155.81;;;11.38;82.75
32733;BME280;11867;51.198;11.966;2023-03-19T00:28:53;100153.84;;;11.44;82.16
32733;BME280;11867;51.198;11.966;2023-03-19T00:29:56;100154.94;;;11.43;82.26
32733;BME280;11867;51.198;11.966;2023-03-19T00:31:05;100150.09;;;11.59;81.78
32733;BME280;11867;51.198;11.966;2023-03-19T00:32:08;100150.69;;;11.56;81.44
32733;BME280;11867;51.198;11.966;2023-03-19T00:33:10;100155.41;;;11.50;81.75
32733;BME280;11867;51.198;11.966;2023-03-19T00:34:13;100154.81;;;11.53;81.79
32733;BME280;11867;51.198;11.966;2023-03-19T00:35:18;100141.16;;;11.53;81.53
32733;BME280;11867;51.198;11.966;2023-03-19T00:36:21;100148.63;;;11.47;81.17
32733;BME280;11867;51.198;11.966;2023-03-19T00:37:23;100157.00;;;11.51;81.25
32733;BME280;11867;51.198;11.966;2023-03-19T00:38:27;100147.97;;;11.56;80.83
32733;BME280;11867;51.198;11.966;2023-03-19T00:39:29;100148.19;;;11.59;80.66
32733;BME280;11867;51.198;11.966;2023-03-19T00:40:32;100151.38;;;11.66;80.36
32733;BME280;11867;51.198;11.966;2023-03-19T00:41:34;100151.94;;;11.63;80.36
32733;BME280;11867;51.198;11.966;2023-03-19T00:42:36;100154.88;;;11.48;80.77
32733;BME280;11867;51.198;11.966;2023-03-19T00:43:38;100156.28;;;11.45;81.03
32733;BME280;11867;51.198;11.966;2023-03-19T00:44:41;100159.19;;;11.54;81.09
32733;BME280;11867;51.198;11.966;2023-03-19T00:45:43;100161.22;;;11.43;80.33
32733;BME280;11867;51.198;11.966;2023-03-19T00:46:45;100154.47;;;11.36;80.82
32733;BME280;11867;51.198;11.966;2023-03-19T00:47:47;100152.50;;;11.41;80.59
32733;BME280;11867;51.198;11.966;2023-03-19T00:48:50;100155.63;;;11.54;80.19
32733;BME280;11867;51.198;11.966;2023-03-19T00:49:55;100153.22;;;11.71;80.08
32733;BME280;11867;51.198;11.966;2023-03-19T00:51:01;100151.47;;;11.80;79.34
32733;BME280;11867;51.198;11.966;2023-03-19T00:52:03;100152.06;;;11.77;78.53
32733;BME280;11867;51.198;11.966;2023-03-19T00:53:06;100146.72;;;11.91;78.04
32733;BME280;11867;51.198;11.966;2023-03-19T00:54:10;100146.47;;;11.87;78.66
32733;BME280;11867;51.198;11.966;2023-03-19T00:55:15;100151.59;;;11.94;78.58
32733;BME280;11867;51.198;11.966;2023-03-19T00:56:17;100156.88;;;11.85;78.66
32733;BME280;11867;51.198;11.966;2023-03-19T00:57:20;100155.19;;;11.89;78.82
32733;BME280;11867;51.198;11.966;2023-03-19T00:58:22;100153.75;;;11.73;79.34
32733;BME280;11867;51.198;11.966;2023-03-19T00:59:25;100161.22;;;11.43;80.94
32733;BME280;11867;51.198;11.966;2023-03-19T01:00:27;100153.81;;;11.68;80.29
32733;BME280;11867;51.198;11.966;2023-03-19T01:01:30;100151.78;;;11.55;80.58
32733;BME280;11867;51.198;11.966;2023-03-19T01:02:32;100156.63;;;11.15;81.74
32733;BME280;11867;51.198;11.966;2023-03-19T01:03:35;100160.56;;;11.27;82.11
32733;BME280;11867;51.198;11.966;2023-03-19T01:04:37;100158.41;;;11.48;81.36
32733;BME280;11867;51.198;11.966;2023-03-19T01:05:39;100164.03;;;11.09;82.93
32733;BME280;11867;51.198;11.966;2023-03-19T01:06:41;100171.41;;;10.45;84.58
32733;BME280;11867;51.198;11.966;2023-03-19T01:07:44;100171.03;;;10.12;86.84
32733;BME280;11867;51.198;11.966;2023-03-19T01:08:46;100165.88;;;10.55;85.73
32733;BME280;11867;51.198;11.966;2023-03-19T01:09:50;100162.28;;;10.94;84.27
32733;BME280;11867;51.198;11.966;2023-03-19T01:10:52;100164.56;;;11.11;82.96
32733;BME280;11867;51.198;11.966;2023-03-19T01:11:55;100169.03;;;11.26;82.18
32733;BME280;11867;51.198;11.966;2023-03-19T01:12:57;100161.16;;;11.48;81.51
32733;BME280;11867;51.198;11.966;2023-03-19T01:13:59;100165.97;;;11.57;80.59
32733;BME280;11867;51.198;11.966;2023-03-19T01:15:03;100167.19;;;11.45;80.75
32733;BME280;11867;51.198;11.966;2023-03-19T01:16:07;100165.44;;;11.55;78.66
32733;BME280;11867;51.198;11.966;2023-03-19T01:17:09;100161.38;;;11.28;79.61
32733;BME280;11867;51.198;11.966;2023-03-19T01:18:11;100156.56;;;10.90;82.26
32733;BME280;11867;51.198;11.966;2023-03-19T01:19:13;100169.88;;;10.97;82.59
32733;BME280;11867;51.198;11.966;2023-03-19T01:20:16;100161.81;;;11.11;82.87
32733;BME280;11867;51.198;11.966;2023-03-19T01:21:19;100168.88;;;11.41;81.70
32733;BME280;11867;51.198;11.966;2023-03-19T01:22:22;100164.69;;;11.49;81.25
32733;BME280;11867;51.198;11.966;2023-03-19T01:23:24;100170.53;;;11.61;80.97
32733;BME280;11867;51.198;11.966;2023-03-19T01:24:28;100167.47;;;11.68;80.32
32733;BME280;11867;51.198;11.966;2023-03-19T01:25:31;100172.09;;;11.67;80.32
32733;BME280;11867;51.198;11.966;2023-03-19T01:26:34;100167.88;;;11.80;79.95
32733;BME280;11867;51.198;11.966;2023-03-19T01:27:36;100169.81;;;11.99;79.01
32733;BME280;11867;51.198;11.966;2023-03-19T01:28:38;100164.72;;;11.92;78.21
32733;BME280;11867;51.198;11.966;2023-03-19T01:29:40;100170.28;;;11.82;78.95
32733;BME280;11867;51.198;11.966;2023-03-19T01:30:43;100160.66;;;11.65;79.27
32733;BME280;11867;51.198;11.966;2023-03-19T01:31:45;100166.81;;;11.04;82.22
32733;BME280;11867;51.198;11.966;2023-03-19T01:32:47;100161.38;;;11.28;82.14
32733;BME280;11867;51.198;11.966;2023-03-19T01:33:49;100169.22;;;11.59;80.90
32733;BME280;11867;51.198;11.966;2023-03-19T01:34:53;100169.25;;;11.78;80.09
32733;BME280;11867;51.198;11.966;2023-03-19T01:35:54;100167.50;;;11.87;79.59
32733;BME280;11867;51.198;11.966;2023-03-19T01:36:58;100174.47;;;11.98;78.99
32733;BME280;11867;51.198;11.966;2023-03-19T01:38:02;100177.16;;;12.03;78.38
32733;BME280;11867;51.198;11.966;2023-03-19T01:39:05;100172.56;;;11.99;78.44
32733;BME280;11867;51.198;11.966;2023-03-19T01:40:10;100176.19;;;12.13;77.90
32733;BME280;11867;51.198;11.966;2023-03-19T01:41:14;100173.97;;;12.15;77.92
32733;BME280;11867;51.198;11.966;2023-03-19T01:42:16;100179.38;;;12.20;77.71
32733;BME280;11867;51.198;11.966;2023-03-19T01:43:21;100179.22;;;12.30;77.38
32733;BME280;11867;51.198;11.966;2023-03-19T01:44:25;100174.94;;;12.43;76.26
32733;BME280;11867;51.198;11.966;2023-03-19T01:45:33;100172.63;;;12.50;75.94
32733;BME280;11867;51.198;11.966;2023-03-19T01:46:37;100176.19;;;12.51;76.07
32733;BME280;11867;51.198;11.966;2023-03-19T01:47:41;100172.53;;;12.56;75.92
32733;BME280;11867;51.198;11.966;2023-03-19T01:48:47;100170.56;;;12.61;75.71
32733;BME280;11867;51.198;11.966;2023-03-19T01:49:52;100169.94;;;12.64;75.53
32733;BME280;11867;51.198;11.966;2023-03-19T01:50:55;100169.03;;;12.69;75.38
32733;BME280;11867;51.198;11.966;2023-03-19T01:52:01;100163.66;;;12.64;76.10
32733;BME280;11867;51.198;11.966;2023-03-19T01:53:05;100163.56;;;12.69;75.92
32733;BME280;11867;51.198;11.966;2023-03-19T01:54:12;100161.06;;;12.72;75.62
32733;BME280;11867;51.198;11.966;2023-03-19T01:55:14;100159.22;;;12.68;75.25
32733;BME280;11867;51.198;11.966;2023-03-19T01:56:21;100162.69;;;12.74;74.83
32733;BME280;11867;51.198;11.966;2023-03-19T01:57:24;100163.72;;;12.78;74.73
32733;BME280;11867;51.198;11.966;2023-03-19T01:58:27;100166.13;;;12.79;74.59
32733;BME280;11867;51.198;11.966;2023-03-19T01:59:31;100162.69;;;12.74;74.85
32733;BME280;11867;51.198;11.966;2023-03-19T02:00:36;100160.88;;;12.83;74.38
32733;BME280;11867;51.198;11.966;2023-03-19T02:01:42;100158.38;;;12.86;74.17
32733;BME280;11867;51.198;11.966;2023-03-19T02:02:51;100161.50;;;12.93;73.89
32733;BME280;11867;51.198;11.966;2023-03-19T02:03:54;100156.13;;;12.88;74.05
32733;BME280;11867;51.198;11.966;2023-03-19T02:04:59;100155.69;;;12.81;74.09
32733;BME280;11867;51.198;11.966;2023-03-19T02:06:03;100155.41;;;12.83;74.57
32733;BME280;11867;51.198;11.966;2023-03-19T02:07:07;100149.94;;;12.83;74.53
32733;BME280;11867;51.198;11.966;2023-03-19T02:08:12;100149.34;;;12.86;74.28
32733;BME280;11867;51.198;11.966;2023-03-19T02:09:17;100152.16;;;12.81;74.37
32733;BME280;11867;51.198;11.966;2023-03-19T02:10:21;100149.44;;;12.81;74.55
32733;BME280;11867;51.198;11.966;2023-03-19T02:11:25;100155.63;;;12.86;74.27
32733;BME280;11867;51.198;11.966;2023-03-19T02:12:28;100155.41;;;12.83;74.44
32733;BME280;11867;51.198;11.966;2023-03-19T02:13:29;100162.81;;;12.82;74.80
32733;BME280;11867;51.198;11.966;2023-03-19T02:14:32;100163.63;;;12.83;74.36
32733;BME280;11867;51.198;11.966;2023-03-19T02:15:34;100162.06;;;12.77;74.44
32733;BME280;11867;51.198;11.966;2023-03-19T02:16:37;100157.22;;;12.74;74.57
32733;BME280;11867;51.198;11.966;2023-03-19T02:17:39;100159.28;;;12.63;74.83
32733;BME280;11867;51.198;11.966;2023-03-19T02:18:43;100154.81;;;12.53;75.31
32733;BME280;11867;51.198;11.966;2023-03-19T02:19:48;100154.88;;;12.48;75.92
32733;BME280;11867;51.198;11.966;2023-03-19T02:20:57;100153.06;;;12.24;76.89
32733;BME280;11867;51.198;11.966;2023-03-19T02:22:02;100147.34;;;12.40;76.59
32733;BME280;11867;51.198;11.966;2023-03-19T02:23:10;100153.97;;;12.52;75.84
32733;BME280;11867;51.198;11.966;2023-03-19T02:24:16;100151.41;;;12.61;75.71
32733;BME280;11867;51.198;11.966;2023-03-19T02:25:27;100150.78;;;12.64;75.63
32733;BME280;11867;51.198;11.966;2023-03-19T02:26:32;100150.22;;;12.67;75.72
32733;BME280;11867;51.198;11.966;2023-03-19T02:27:36;100154.78;;;12.72;75.40
32733;BME280;11867;51.198;11.966;2023-03-19T02:28:40;100153.88;;;12.77;74.72
32733;BME280;11867;51.198;11.966;2023-03-19T02:29:44;100153.81;;;12.82;74.48
32733;BME280;11867;51.198;11.966;2023-03-19T02:30:46;100154.09;;;12.80;74.59
32733;BME280;11867;51.198;11.966;2023-03-19T02:31:49;100155.88;;;12.19;76.51
32733;BME280;11867;51.198;11.966;2023-03-19T02:32:51;100153.22;;;11.95;77.73
32733;BME280;11867;51.198;11.966;2023-03-19T02:33:58;100159.50;;;12.15;77.18
32733;BME280;11867;51.198;11.966;2023-03-19T02:34:59;100153.81;;;12.30;76.67
32733;BME280;11867;51.198;11.966;2023-03-19T02:36:04;100160.31;;;12.34;75.86
32733;BME280;11867;51.198;11.966;2023-03-19T02:37:11;100165.09;;;12.23;75.74
32733;BME280;11867;51.198;11.966;2023-03-19T02:38:14;100151.94;;;12.25;76.00
32733;BME280;11867;51.198;11.966;2023-03-19T02:39:19;100161.13;;;12.35;75.72
32733;BME280;11867;51.198;11.966;2023-03-19T02:40:28;100160.22;;;11.58;77.61
32733;BME280;11867;51.198;11.966;2023-03-19T02:41:32;100159.16;;;11.30;78.57
32733;BME280;11867;51.198;11.966;2023-03-19T02:42:35;100165.53;;;10.62;81.39
32733;BME280;11867;51.198;11.966;2023-03-19T02:43:38;100166.97;;;10.54;82.78
32733;BME280;11867;51.198;11.966;2023-03-19T02:44:42;100164.66;;;10.72;83.45
32733;BME280;11867;51.198;11.966;2023-03-19T02:45:43;100159.53;;;10.94;83.03
32733;BME280;11867;51.198;11.966;2023-03-19T02:46:46;100152.66;;;11.02;82.99
32733;BME280;11867;51.198;11.966;2023-03-19T02:47:48;100154.00;;;11.28;81.84
32733;BME280;11867;51.198;11.966;2023-03-19T02:48:50;100157.09;;;11.46;81.04
32733;BME280;11867;51.198;11.966;2023-03-19T02:49:52;100156.22;;;10.97;82.04
32733;BME280;11867;51.198;11.966;2023-03-19T02:50:55;100155.41;;;10.28;85.30
32733;BME280;11867;51.198;11.966;2023-03-19T02:51:57;100156.16;;;9.94;86.83
32733;BME280;11867;51.198;11.966;2023-03-19T02:52:59;100155.28;;;10.09;86.49
32733;BME280;11867;51.198;11.966;2023-03-19T02:54:01;100154.63;;;10.27;85.98
32733;BME280;11867;51.198;11.966;2023-03-19T02:55:05;100157.28;;;10.72;84.54
32733;BME280;11867;51.198;11.966;2023-03-19T02:56:07;100154.03;;;10.99;82.99
32733;BME280;11867;51.198;11.966;2023-03-19T02:57:11;100152.88;;;11.05;82.48
32733;BME280;11867;51.198;11.966;2023-03-19T02:58:13;100160.41;;;11.19;81.66
32733;BME280;11867;51.198;11.966;2023-03-19T02:59:15;100148.72;;;11.13;81.56
32733;BME280;11867;51.198;11.966;2023-03-19T03:00:17;100162.53;;;10.98;82.02
32733;BME280;11867;51.198;11.966;2023-03-19T03:01:21;100156.63;;;10.85;83.00
32733;BME280;11867;51.198;11.966;2023-03-19T03:02:23;100154.78;;;11.05;82.20
32733;BME280;11867;51.198;11.966;2023-03-19T03:03:26;100153.38;;;10.83;81.91
32733;BME280;11867;51.198;11.966;2023-03-19T03:04:28;100165.97;;;10.79;81.89
32733;BME280;11867;51.198;11.966;2023-03-19T03:05:31;100171.22;;;11.00;81.39
32733;BME280;11867;51.198;11.966;2023-03-19T03:06:33;100179.38;;;11.29;80.70
32733;BME280;11867;51.198;11.966;2023-03-19T03:07:36;100179.31;;;11.34;79.88
32733;BME280;11867;51.198;11.966;2023-03-19T03:08:37;100183.31;;;11.18;79.17
32733;BME280;11867;51.198;11.966;2023-03-19T03:09:40;100178.66;;;11.18;79.34
32733;BME280;11867;51.198;11.966;2023-03-19T03:10:42;100179.91;;;11.31;79.39
32733;BME280;11867;51.198;11.966;2023-03-19T03:11:45;100174.03;;;11.19;78.38
32733;BME280;11867;51.198;11.966;2023-03-19T03:12:48;100174.56;;;11.21;77.78
32733;BME280;11867;51.198;11.966;2023-03-19T03:13:51;100172.91;;;11.20;77.90
32733;BME280;11867;51.198;11.966;2023-03-19T03:14:53;100174.38;;;11.36;77.53
32733;BME280;11867;51.198;11.966;2023-03-19T03:15:56;100171.13;;;11.34;77.04
32733;BME280;11867;51.198;11.966;2023-03-19T03:16:58;100173.72;;;11.20;78.37
32733;BME280;11867;51.198;11.966;2023-03-19T03:18:00;100173.59;;;11.36;77.55
32733;BME280;11867;51.198;11.966;2023-03-19T03:19:02;100177.59;;;11.43;77.44
32733;BME280;11867;51.198;11.966;2023-03-19T03:20:06;100179.16;;;11.25;79.12
32733;BME280;11867;51.198;11.966;2023-03-19T03:21:08;100177.88;;;11.42;77.68
32733;BME280;11867;51.198;11.966;2023-03-19T03:22:12;100178.78;;;11.32;77.37
32733;BME280;11867;51.198;11.966;2023-03-19T03:23:13;100178.97;;;10.87;79.81
32733;BME280;11867;51.198;11.966;2023-03-19T03:24:16;100188.91;;;10.73;79.47
32733;BME280;11867;51.198;11.966;2023-03-19T03:25:17;100184.59;;;10.27;82.10
32733;BME280;11867;51.198;11.966;2023-03-19T03:26:21;100186.16;;;10.44;81.68
32733;BME280;11867;51.198;11.966;2023-03-19T03:27:22;100184.03;;;10.30;82.17
32733;BME280;11867;51.198;11.966;2023-03-19T03:28:26;100188.13;;;10.23;83.00
32733;BME280;11867;51.198;11.966;2023-03-19T03:29:28;100178.31;;;9.77;84.39
32733;BME280;11867;51.198;11.966;2023-03-19T03:30:30;100184.28;;;9.84;84.71
32733;BME280;11867;51.198;11.966;2023-03-19T03:31:33;100173.97;;;9.76;85.24
32733;BME280;11867;51.198;11.966;2023-03-19T03:32:37;100181.56;;;9.79;85.07
32733;BME280;11867;51.198;11.966;2023-03-19T03:33:39;100179.50;;;10.10;84.29
32733;BME280;11867;51.198;11.966;2023-03-19T03:34:42;100181.22;;;10.46;82.58
32733;BME280;11867;51.198;11.966;2023-03-19T03:35:43;100188.09;;;10.73;81.21
32733;BME280;11867;51.198;11.966;2023-03-19T03:36:46;100181.41;;;10.89;80.22
32733;BME280;11867;51.198;11.966;2023-03-19T03:37:48;100170.41;;;10.99;79.41
32733;BME280;11867;51.198;11.966;2023-03-19T03:38:52;100185.69;;;11.00;79.52
32733;BME280;11867;51.198;11.966;2023-03-19T03:39:53;100182.34;;;11.03;79.54
32733;BME280;11867;51.198;11.966;2023-03-19T03:40:56;100180.41;;;11.09;79.31
32733;BME280;11867;51.198;11.966;2023-03-19T03:41:57;100186.91;;;10.84;79.74
32733;BME280;11867;51.198;11.966;2023-03-19T03:43:00;100181.50;;;10.79;79.97
32733;BME280;11867;51.198;11.966;2023-03-19T03:44:04;100192.81;;;10.62;80.62
32733;BME280;11867;51.198;11.966;2023-03-19T03:45:08;100188.78;;;10.09;83.07
32733;BME280;11867;51.198;11.966;2023-03-19T03:46:11;100200.75;;;10.14;82.87
32733;BME280;11867;51.198;11.966;2023-03-19T03:47:14;100197.63;;;9.81;84.82
32733;BME280;11867;51.198;11.966;2023-03-19T03:48:16;100200.56;;;9.95;85.02
32733;BME280;11867;51.198;11.966;2023-03-19T03:49:19;100203.69;;;10.22;83.56
32733;BME280;11867;51.198;11.966;2023-03-19T03:50:20;100195.09;;;10.00;84.02
32733;BME280;11867;51.198;11.966;2023-03-19T03:51:23;100195.31;;;9.43;86.53
32733;BME280;11867;51.198;11.966;2023-03-19T03:52:26;100194.56;;;9.12;88.46
32733;BME280;11867;51.198;11.966;2023-03-19T03:53:31;100189.44;;;8.95;89.82
32733;BME280;11867;51.198;11.966;2023-03-19T03:54:34;100193.75;;;9.06;89.60
32733;BME280;11867;51.198;11.966;2023-03-19T03:55:36;100187.25;;;8.72;90.82
32733;BME280;11867;51.198;11.966;2023-03-19T03:56:39;100189.41;;;8.80;91.02
32733;BME280;11867;51.198;11.966;2023-03-19T03:57:40;100194.88;;;8.95;90.40
32733;BME280;11867;51.198;11.966;2023-03-19T03:58:43;100196.47;;;9.06;90.19
32733;BME280;11867;51.198;11.966;2023-03-19T03:59:46;100191.06;;;8.81;90.27
32733;BME280;11867;51.198;11.966;2023-03-19T04:00:49;100191.28;;;8.38;92.57
32733;BME280;11867;51.198;11.966;2023-03-19T04:01:51;100189.84;;;8.05;94.70
32733;BME280;11867;51.198;11.966;2023-03-19T04:02:53;100187.66;;;8.02;95.50
32733;BME280;11867;51.198;11.966;2023-03-19T04:03:55;100193.66;;;8.09;95.18
32733;BME280;11867;51.198;11.966;2023-03-19T04:04:58;100199.72;;;8.47;93.87
32733;BME280;11867;51.198;11.966;2023-03-19T04:05:59;100202.75;;;8.61;92.39
32733;BME280;11867;51.198;11.966;2023-03-19T04:07:02;100201.38;;;8.94;90.59
32733;BME280;11867;51.198;11.966;2023-03-19T04:08:06;100198.09;;;9.18;88.87
32733;BME280;11867;51.198;11.966;2023-03-19T04:09:08;100198.63;;;9.20;87.66
32733;BME280;11867;51.198;11.966;2023-03-19T04:10:11;100195.13;;;8.68;88.86
32733;BME280;11867;51.198;11.966;2023-03-19T04:11:14;100194.31;;;8.42;90.31
32733;BME280;11867;51.198;11.966;2023-03-19T04:12:15;100188.28;;;8.29;91.43
32733;BME280;11867;51.198;11.966;2023-03-19T04:13:18;100190.72;;;8.21;92.34
32733;BME280;11867;51.198;11.966;2023-03-19T04:14:20;100200.28;;;8.59;91.65
32733;BME280;11867;51.198;11.966;2023-03-19T04:15:24;100198.66;;;8.94;89.69
32733;BME280;11867;51.198;11.966;2023-03-19T04:16:26;100203.78;;;9.21;88.02
32733;BME280;11867;51.198;11.966;2023-03-19T04:17:29;100208.88;;;9.48;86.31
32733;BME280;11867;51.198;11.966;2023-03-19T04:18:31;100193.09;;;9.56;85.64
32733;BME280;11867;51.198;11.966;2023-03-19T04:19:33;100209.94;;;9.63;85.00
32733;BME280;11867;51.198;11.966;2023-03-19T04:20:35;100210.19;;;9.72;84.04
32733;BME280;11867;51.198;11.966;2023-03-19T04:21:38;100216.66;;;9.86;83.30
32733;BME280;11867;51.198;11.966;2023-03-19T04:22:39;100213.84;;;9.21;84.98
32733;BME280;11867;51.198;11.966;2023-03-19T04:23:42;100206.56;;;8.75;88.00
32733;BME280;11867;51.198;11.966;2023-03-19T04:24:43;100214.69;;;8.80;88.25
32733;BME280;11867;51.198;11.966;2023-03-19T04:25:46;100204.88;;;9.15;87.26
32733;BME280;11867;51.198;11.966;2023-03-19T04:26:48;100211.09;;;9.36;85.90
32733;BME280;11867;51.198;11.966;2023-03-19T04:27:51;100207.56;;;9.36;85.51
32733;BME280;11867;51.198;11.966;2023-03-19T04:28:53;100202.06;;;9.56;84.83
32733;BME280;11867;51.198;11.966;2023-03-19T04:29:56;100208.13;;;9.27;85.38
32733;BME280;11867;51.198;11.966;2023-03-19T04:30:59;100194.88;;;8.85;86.91
32733;BME280;11867;51.198;11.966;2023-03-19T04:32:02;100203.00;;;8.49;89.72
32733;BME280;11867;51.198;11.966;2023-03-19T04:33:04;100205.72;;;8.44;90.32
32733;BME280;11867;51.198;11.966;2023-03-19T04:34:07;100203.81;;;8.80;89.22
32733;BME280;11867;51.198;11.966;2023-03-19T04:35:09;100199.22;;;9.01;87.96
32733;BME280;11867;51.198;11.966;2023-03-19T04:36:12;100197.53;;;9.21;86.90
32733;BME280;11867;51.198;11.966;2023-03-19T04:37:14;100204.56;;;9.42;85.77
32733;BME280;11867;51.198;11.966;2023-03-19T04:38:16;100200.56;;;8.94;86.65
32733;BME280;11867;51.198;11.966;2023-03-19T04:39:18;100188.06;;;8.67;88.23
32733;BME280;11867;51.198;11.966;2023-03-19T04:40:21;100205.19;;;8.73;88.70
32733;BME280;11867;51.198;11.966;2023-03-19T04:41:22;100203.28;;;8.88;88.46
32733;BME280;11867;51.198;11.966;2023-03-19T04:42:26;100202.72;;;9.17;86.90
32733;BME280;11867;51.198;11.966;2023-03-19T04:43:27;100210.09;;;8.60;87.60
32733;BME280;11867;51.198;11.966;2023-03-19T04:44:30;100209.94;;;7.99;91.21
32733;BME280;11867;51.198;11.966;2023-03-19T04:45:32;100201.97;;;7.77;93.11
32733;BME280;11867;51.198;11.966;2023-03-19T04:46:36;100211.72;;;7.67;94.07
32733;BME280;11867;51.198;11.966;2023-03-19T04:47:38;100206.53;;;7.66;93.96
32733;BME280;11867;51.198;11.966;2023-03-19T04:48:41;100212.78;;;7.66;94.32
32733;BME280;11867;51.198;11.966;2023-03-19T04:49:42;100212.22;;;7.59;94.07
32733;BME280;11867;51.198;11.966;2023-03-19T04:50:45;100206.53;;;7.13;96.78
32733;BME280;11867;51.198;11.966;2023-03-19T04:51:47;100216.88;;;6.84;99.20
32733;BME280;11867;51.198;11.966;2023-03-19T04:52:50;100216.03;;;6.78;99.77
32733;BME280;11867;51.198;11.966;2023-03-19T04:53:52;100228.72;;;6.73;100.00
32733;BME280;11867;51.198;11.966;2023-03-19T04:54:55;100238.13;;;6.65;100.00
32733;BME280;11867;51.198;11.966;2023-03-19T04:55:56;100229.41;;;6.63;100.00
32733;BME280;11867;51.198;11.966;2023-03-19T04:56:59;100228.06;;;6.60;100.00
32733;BME280;11867;51.198;11.966;2023-03-19T04:58:01;100233.47;;;6.60;100.00
32733;BME280;11867;51.198;11.966;2023-03-19T04:59:04;100236.69;;;6.57;100.00
32733;BME280;11867;51.198;11.966;2023-03-19T05:00:06;100232.91;;;6.58;100.00
32733;BME280;11867;51.198;11.966;2023-03-19T05:01:10;100229.94;;;6.60;100.00
32733;BME280;11867;51.198;11.966;2023-03-19T05:02:13;100232.94;;;6.63;100.00
32733;BME280;11867;51.198;11.966;2023-03-19T05:03:16;100230.78;;;6.93;100.00
32733;BME280;11867;51.198;11.966;2023-03-19T05:04:18;100222.13;;;6.96;98.69
32733;BME280;11867;51.198;11.966;2023-03-19T05:05:20;100225.69;;;7.01;97.52
32733;BME280;11867;51.198;11.966;2023-03-19T05:06:22;100224.31;;;6.99;97.71
32733;BME280;11867;51.198;11.966;2023-03-19T05:07:24;100226.47;;;6.97;98.02
32733;BME280;11867;51.198;11.966;2023-03-19T05:08:26;100229.53;;;7.11;97.36
32733;BME280;11867;51.198;11.966;2023-03-19T05:09:29;100222.66;;;6.98;97.10
32733;BME280;11867;51.198;11.966;2023-03-19T05:10:32;100216.13;;;6.94;97.67
32733;BME280;11867;51.198;11.966;2023-03-19T05:11:35;100215.31;;;6.93;97.52
32733;BME280;11867;51.198;11.966;2023-03-19T05:12:37;100222.38;;;6.94;97.70
32733;BME280;11867;51.198;11.966;2023-03-19T05:13:40;100232.63;;;6.87;97.65
32733;BME280;11867;51.198;11.966;2023-03-19T05:14:41;100224.75;;;7.23;97.50
32733;BME280;11867;51.198;11.966;2023-03-19T05:15:44;100232.00;;;7.55;95.80
32733;BME280;11867;51.198;11.966;2023-03-19T05:16:46;100228.56;;;7.75;93.96
32733;BME280;11867;51.198;11.966;2023-03-19T05:17:50;100223.50;;;8.04;92.68
32733;BME280;11867;51.198;11.966;2023-03-19T05:18:52;100230.94;;;8.29;90.72
32733;BME280;11867;51.198;11.966;2023-03-19T05:19:54;100236.16;;;8.46;89.30
32733;BME280;11867;51.198;11.966;2023-03-19T05:20:57;100228.28;;;8.60;88.30
32733;BME280;11867;51.198;11.966;2023-03-19T05:22:00;100236.16;;;8.61;87.91
32733;BME280;11867;51.198;11.966;2023-03-19T05:23:02;100231.81;;;8.76;87.28
32733;BME280;11867;51.198;11.966;2023-03-19T05:24:04;100230.72;;;8.46;87.58
32733;BME280;11867;51.198;11.966;2023-03-19T05:25:06;100232.66;;;7.82;90.26
32733;BME280;11867;51.198;11.966;2023-03-19T05:26:10;100229.91;;;7.72;91.58